Time;durP1;ratioP1;P1;durP2;ratioP2;P2;SDS_P1;SDS_P2;PMS_P1;PMS_P2;Temp;Humidity;BMP_temperature;BMP_pressure;BME280_temperature;BME280_humidity;BME280_pressure;Samples;Min_cycle;Max_cycle;Signal;HPM_P1;HPM_P2
2021/08/23 00:02:08;;;;;;;9.93;4.73;;;;;;;19.08;65.20;98224.50;8385290;28;20216;-65
2021/08/23 00:06:11;;;;;;;10.37;5.83;;;;;;;19.09;65.53;98225.34;8386717;28;20203;-65
2021/08/23 00:10:14;;;;;;;6.07;4.90;;;;;;;19.12;64.93;98225.13;8386222;28;20208;-66
2021/08/23 00:14:18;;;;;;;7.97;5.53;;;;;;;19.09;65.17;98230.59;8386254;28;20224;-64
2021/08/23 00:18:21;;;;;;;9.83;5.33;;;;;;;19.04;65.51;98232.72;8386011;28;20205;-65
2021/08/23 00:22:30;;;;;;;10.33;5.30;;;;;;;19.07;65.35;98228.06;8386039;28;20204;-65
2021/08/23 00:26:33;;;;;;;8.43;5.17;;;;;;;19.09;65.44;98226.16;8385996;28;20200;-65
2021/08/23 00:30:37;;;;;;;8.47;4.73;;;;;;;19.11;65.31;98229.53;8385697;28;20210;-65
2021/08/23 00:34:40;;;;;;;7.97;5.37;;;;;;;19.07;65.49;98233.31;8385383;28;20235;-65
2021/08/23 00:38:43;;;;;;;7.73;4.87;;;;;;;19.01;65.44;98231.16;8385452;28;20527;-65
2021/08/23 00:42:46;;;;;;;10.90;5.33;;;;;;;19.06;65.10;98230.84;8385361;28;20214;-65
2021/08/23 00:46:50;;;;;;;6.30;5.03;;;;;;;19.10;65.15;98233.09;8385374;28;20209;-65
2021/08/23 00:50:53;;;;;;;7.80;4.77;;;;;;;19.05;65.40;98232.59;8385165;28;20414;-65
2021/08/23 00:54:56;;;;;;;5.93;4.87;;;;;;;19.01;65.27;98239.03;8384991;28;20231;-65
2021/08/23 00:59:00;;;;;;;5.97;4.43;;;;;;;18.97;65.21;98236.78;8384768;28;20200;-65
2021/08/23 01:03:11;;;;;;;7.33;4.90;;;;;;;18.89;65.67;98239.97;8376955;28;20243;-65
2021/08/23 01:07:16;;;;;;;5.87;4.63;;;;;;;19.01;65.08;98244.28;8384570;28;20200;-65
2021/08/23 01:11:21;;;;;;;8.13;4.83;;;;;;;18.94;65.24;98243.91;8384463;28;20204;-65
2021/08/23 01:15:24;;;;;;;7.67;5.07;;;;;;;18.84;65.57;98242.91;8384275;28;20235;-65
2021/08/23 01:19:28;;;;;;;6.70;4.37;;;;;;;18.95;65.27;98252.63;8384228;28;20423;-65
2021/08/23 01:23:32;;;;;;;7.10;4.60;;;;;;;18.94;65.09;98262.28;8384372;28;20210;-65
2021/08/23 01:27:38;;;;;;;7.43;4.23;;;;;;;18.95;65.30;98250.81;8383673;28;20207;-66
2021/08/23 01:31:43;;;;;;;8.20;4.60;;;;;;;18.96;65.36;98251.66;8384237;28;20397;-66
2021/08/23 01:35:47;;;;;;;7.40;4.90;;;;;;;18.95;65.01;98247.38;8383442;28;20241;-66
2021/08/23 01:39:51;;;;;;;5.93;4.37;;;;;;;18.97;65.34;98244.66;8383511;28;20208;-66
2021/08/23 01:43:53;;;;;;;6.37;4.43;;;;;;;18.99;64.93;98245.38;8383419;28;20204;-66
2021/08/23 01:47:56;;;;;;;11.00;5.03;;;;;;;18.92;64.94;98245.81;8383662;28;20284;-66
2021/08/23 01:52:00;;;;;;;6.10;4.30;;;;;;;18.92;65.12;98251.06;8383231;28;20512;-66
2021/08/23 01:56:03;;;;;;;6.27;4.70;;;;;;;18.93;64.96;98251.91;8383169;28;20228;-66
2021/08/23 02:00:07;;;;;;;6.77;5.00;;;;;;;18.91;65.42;98246.75;8383121;28;20493;-66
2021/08/23 02:04:10;;;;;;;5.80;4.13;;;;;;;18.91;65.33;98240.69;8382792;28;20243;-66
2021/08/23 02:08:14;;;;;;;6.40;4.70;;;;;;;18.90;65.51;98246.88;8382958;28;20200;-66
2021/08/23 02:12:17;;;;;;;7.10;4.10;;;;;;;18.93;65.13;98246.66;8382842;28;20207;-66
2021/08/23 02:16:20;;;;;;;5.70;4.43;;;;;;;18.91;64.85;98243.31;8382343;28;20201;-66
2021/08/23 02:20:23;;;;;;;7.57;4.30;;;;;;;18.90;65.15;98242.44;8382895;28;20200;-66
2021/08/23 02:24:28;;;;;;;6.43;4.23;;;;;;;18.88;65.24;98235.66;8382710;28;20212;-66
2021/08/23 02:28:31;;;;;;;7.07;4.30;;;;;;;18.88;64.87;98236.47;8382817;28;20479;-66
2021/08/23 02:32:36;;;;;;;8.00;4.20;;;;;;;18.85;65.05;98235.88;8382345;28;20211;-66
2021/08/23 02:36:38;;;;;;;9.97;4.70;;;;;;;18.84;65.29;98228.97;8382649;28;20334;-66
2021/08/23 02:40:43;;;;;;;5.83;4.33;;;;;;;18.83;65.50;98236.00;8382427;28;20207;-66
2021/08/23 02:44:45;;;;;;;7.00;4.33;;;;;;;18.89;65.51;98235.53;8382477;28;20204;-66
2021/08/23 02:48:48;;;;;;;6.03;4.33;;;;;;;18.87;65.04;98228.75;8382268;28;20204;-66
2021/08/23 02:52:51;;;;;;;8.40;5.40;;;;;;;18.83;65.13;98237.78;8382376;28;20239;-66
2021/08/23 02:56:55;;;;;;;7.93;4.90;;;;;;;18.83;65.59;98232.53;8382199;28;20200;-66
2021/08/23 03:00:58;;;;;;;9.67;4.80;;;;;;;18.78;65.52;98230.22;8381900;28;20206;-66
2021/08/23 03:05:01;;;;;;;8.00;5.40;;;;;;;18.75;65.11;98231.28;8382166;28;20240;-66
2021/08/23 03:09:03;;;;;;;9.37;5.10;;;;;;;18.77;65.37;98225.91;8382016;28;20250;-66
2021/08/23 03:13:08;;;;;;;8.83;5.80;;;;;;;18.82;65.74;98225.63;8382016;28;20231;-66
2021/08/23 03:17:11;;;;;;;7.23;5.20;;;;;;;18.74;65.46;98224.38;8382015;28;20207;-66
2021/08/23 03:21:13;;;;;;;6.80;5.20;;;;;;;18.77;65.58;98220.66;8381991;28;20487;-66
2021/08/23 03:25:16;;;;;;;8.83;5.80;;;;;;;18.76;65.69;98226.88;8381798;28;20219;-66
2021/08/23 03:29:20;;;;;;;8.90;5.63;;;;;;;18.79;65.77;98228.44;8384789;28;20200;-66
2021/08/23 03:33:24;;;;;;;9.23;6.07;;;;;;;18.75;65.89;98223.44;8387535;28;20425;-66
2021/08/23 03:37:27;;;;;;;8.43;5.80;;;;;;;18.76;65.60;98222.47;8387319;28;20220;-66
2021/08/23 03:41:30;;;;;;;10.93;6.00;;;;;;;18.76;65.92;98224.25;8387276;28;20207;-66
2021/08/23 03:45:34;;;;;;;11.00;6.17;;;;;;;18.76;65.69;98219.00;8387293;28;20384;-66
2021/08/23 03:49:37;;;;;;;5.40;4.77;;;;;;;18.73;65.93;98230.56;8387016;28;20245;-66
2021/08/23 03:53:39;;;;;;;9.50;6.13;;;;;;;18.71;66.29;98223.75;8387080;28;20228;-66
2021/08/23 03:57:42;;;;;;;6.67;5.83;;;;;;;18.71;66.37;98221.13;8386736;28;20215;-66
2021/08/23 04:01:46;;;;;;;12.47;6.53;;;;;;;18.68;66.45;98226.63;8386696;28;20200;-66
2021/08/23 04:05:49;;;;;;;6.60;5.60;;;;;;;18.70;66.53;98235.22;8386558;28;20248;-66
2021/08/23 04:09:52;;;;;;;7.63;5.73;;;;;;;18.70;66.60;98235.22;8386305;28;20218;-66
2021/08/23 04:13:55;;;;;;;7.00;5.13;;;;;;;18.65;66.46;98235.53;8386229;28;20238;-66
2021/08/23 04:18:00;;;;;;;9.07;6.43;;;;;;;18.72;66.09;98247.25;8386119;28;20382;-66
2021/08/23 04:22:03;;;;;;;10.23;6.23;;;;;;;18.71;66.15;98244.72;8386233;28;20203;-66
2021/08/23 04:26:06;;;;;;;7.10;6.30;;;;;;;18.73;66.82;98240.22;8385931;28;20211;-66
2021/08/23 04:30:10;;;;;;;9.63;6.10;;;;;;;18.70;66.45;98236.03;8385894;28;20513;-66
2021/08/23 04:34:14;;;;;;;13.67;6.70;;;;;;;18.66;66.64;98236.38;8385660;28;20234;-66
2021/08/23 04:38:17;;;;;;;8.27;6.67;;;;;;;18.65;66.45;98240.78;8384790;28;20216;-66
2021/08/23 04:42:20;;;;;;;7.10;6.37;;;;;;;18.58;66.83;98242.16;8385544;28;20200;-66
2021/08/23 04:46:23;;;;;;;7.87;6.00;;;;;;;18.73;66.35;98245.47;8385269;28;20366;-66
2021/08/23 04:50:27;;;;;;;8.87;6.50;;;;;;;18.60;66.92;98245.53;8385251;28;20203;-66
2021/08/23 04:54:30;;;;;;;8.23;7.13;;;;;;;18.73;66.33;98240.22;8385046;28;20538;-66
2021/08/23 04:58:33;;;;;;;9.63;6.87;;;;;;;18.76;66.50;98246.06;8384938;28;20200;-66
2021/08/23 05:02:36;;;;;;;7.77;6.37;;;;;;;18.81;66.18;98247.53;8384489;28;20235;-66
2021/08/23 05:06:40;;;;;;;10.57;6.20;;;;;;;18.74;66.24;98247.97;8384682;28;20211;-66
2021/08/23 05:10:43;;;;;;;8.00;6.63;;;;;;;18.76;66.13;98253.13;8384571;28;20200;-66
2021/08/23 05:14:46;;;;;;;8.70;6.70;;;;;;;18.71;66.45;98256.06;8384302;28;20224;-66
2021/08/23 05:18:49;;;;;;;9.77;7.00;;;;;;;18.76;66.15;98248.69;8384394;28;20206;-66
2021/08/23 05:22:53;;;;;;;8.90;6.60;;;;;;;18.77;66.29;98252.16;8384132;28;20200;-66
2021/08/23 05:26:56;;;;;;;6.97;6.17;;;;;;;18.80;66.03;98253.72;8384045;28;20390;-66
2021/08/23 05:30:59;;;;;;;8.63;6.97;;;;;;;18.76;66.19;98258.34;8383948;28;20212;-66
2021/08/23 05:35:01;;;;;;;10.27;7.23;;;;;;;18.64;66.97;98249.59;8383843;28;20426;-66
2021/08/23 05:39:06;;;;;;;8.53;6.80;;;;;;;18.63;66.99;98249.72;8383691;28;20224;-66
2021/08/23 05:43:08;;;;;;;7.60;6.80;;;;;;;18.80;66.26;98249.34;8383549;28;20204;-66
2021/08/23 05:47:11;;;;;;;8.23;7.37;;;;;;;18.67;66.87;98257.22;8383366;28;20208;-66
2021/08/23 05:51:14;;;;;;;8.43;6.73;;;;;;;18.82;66.62;98255.31;8382483;28;20206;-66
2021/08/23 05:55:19;;;;;;;9.47;7.07;;;;;;;18.88;66.90;98246.97;8383127;28;20235;-66
2021/08/23 05:59:21;;;;;;;14.23;6.93;;;;;;;18.88;66.65;98259.28;8383162;28;20212;-66
2021/08/23 06:03:24;;;;;;;7.30;6.40;;;;;;;18.95;66.36;98257.88;8382829;28;20506;-66
2021/08/23 06:07:27;;;;;;;9.23;6.53;;;;;;;18.99;66.20;98258.47;8382999;28;20205;-66
2021/08/23 06:11:31;;;;;;;9.37;7.60;;;;;;;18.91;66.75;98251.19;8382923;28;20206;-66
2021/08/23 06:15:34;;;;;;;11.93;6.97;;;;;;;18.86;66.98;98251.50;8382779;28;20534;-66
2021/08/23 06:19:37;;;;;;;9.87;7.03;;;;;;;18.98;66.67;98249.75;8382835;28;20200;-66
2021/08/23 06:23:40;;;;;;;9.37;6.73;;;;;;;19.01;66.23;98257.41;8382736;28;20204;-66
2021/08/23 06:27:44;;;;;;;11.20;7.20;;;;;;;19.10;66.19;98250.66;8382789;28;20204;-66
2021/08/23 06:31:46;;;;;;;9.80;7.03;;;;;;;19.14;66.16;98249.47;8382614;28;20499;-66
2021/08/23 06:35:49;;;;;;;10.00;7.23;;;;;;;19.10;66.11;98243.59;8382308;28;20246;-66
2021/08/23 06:39:52;;;;;;;8.67;7.50;;;;;;;19.23;65.69;98240.91;8382540;28;20487;-66
2021/08/23 06:43:56;;;;;;;7.73;6.90;;;;;;;19.30;65.86;98242.09;8382465;28;20200;-66
2021/08/23 06:47:59;;;;;;;9.90;8.90;;;;;;;19.08;66.32;98247.31;8382434;28;20206;-66
2021/08/23 06:52:02;;;;;;;8.50;6.83;;;;;;;19.29;66.16;98242.22;8382347;28;20502;-66
2021/08/23 06:56:05;;;;;;;8.40;7.20;;;;;;;19.26;66.00;98242.44;8382100;28;20230;-66
2021/08/23 07:00:11;;;;;;;10.90;8.10;;;;;;;19.31;65.67;98250.81;8382195;28;20484;-66
2021/08/23 07:04:14;;;;;;;8.43;7.13;;;;;;;19.26;65.80;98255.56;8386520;28;20243;-66
2021/08/23 07:08:17;;;;;;;9.10;8.20;;;;;;;19.32;65.95;98253.34;8388436;28;20208;-66
2021/08/23 07:12:20;;;;;;;10.20;9.13;;;;;;;19.21;65.98;98255.94;8388357;28;20494;-66
2021/08/23 07:16:24;;;;;;;9.77;8.70;;;;;;;19.17;66.02;98259.72;8388000;28;20224;-66
2021/08/23 07:20:27;;;;;;;12.77;10.30;;;;;;;19.17;66.08;98262.34;8388103;28;20203;-67
2021/08/23 07:24:30;;;;;;;12.33;10.70;;;;;;;19.11;65.79;98258.41;8387875;28;20204;-66
2021/08/23 07:28:32;;;;;;;14.70;11.10;;;;;;;19.10;66.09;98263.78;8387915;28;20375;-67
2021/08/23 07:32:37;;;;;;;9.80;8.80;;;;;;;19.29;65.46;98264.06;8387547;28;20298;-66
2021/08/23 07:36:39;;;;;;;11.90;9.80;;;;;;;19.27;65.57;98265.13;8387072;28;20235;-66
2021/08/23 07:40:42;;;;;;;13.57;9.83;;;;;;;19.24;65.88;98263.56;8387690;28;20200;-66
2021/08/23 07:44:45;;;;;;;11.90;9.40;;;;;;;19.41;65.26;98266.72;8387324;28;20487;-66
2021/08/23 07:48:50;;;;;;;11.53;9.43;;;;;;;19.33;65.61;98272.53;8387286;28;20285;-66
2021/08/23 07:52:52;;;;;;;13.97;8.97;;;;;;;19.28;65.77;98278.13;8386913;28;20211;-66
2021/08/23 07:56:55;;;;;;;12.33;8.50;;;;;;;19.26;66.07;98276.56;8386734;28;20230;-66
2021/08/23 08:00:58;;;;;;;9.60;8.60;;;;;;;19.21;65.66;98276.94;8386789;28;20199;-66
2021/08/23 08:05:02;;;;;;;11.00;8.80;;;;;;;19.21;65.94;98283.94;8386458;28;20262;-66
2021/08/23 08:09:05;;;;;;;10.50;9.17;;;;;;;19.29;65.73;98281.63;8386756;28;20203;-66
2021/08/23 08:13:08;;;;;;;9.80;8.63;;;;;;;19.37;66.07;98291.53;8385736;28;20200;-66
2021/08/23 08:17:11;;;;;;;11.97;8.70;;;;;;;19.58;65.49;98283.81;8386040;28;20223;-66
2021/08/23 08:21:15;;;;;;;8.83;7.93;;;;;;;19.67;65.00;98285.75;8386487;28;20200;-66
2021/08/23 08:25:18;;;;;;;10.30;8.40;;;;;;;19.68;64.70;98290.88;8386342;28;20517;-66
2021/08/23 08:29:21;;;;;;;10.13;8.97;;;;;;;19.65;64.45;98282.41;8385820;28;20207;-66
2021/08/23 08:33:23;;;;;;;12.07;10.23;;;;;;;19.52;64.63;98293.84;8385798;28;20222;-66
2021/08/23 08:37:28;;;;;;;10.70;9.20;;;;;;;19.64;64.29;98289.44;8385465;28;20239;-66
2021/08/23 08:41:31;;;;;;;10.93;8.60;;;;;;;19.71;64.47;98284.56;8385435;28;20429;-66
2021/08/23 08:45:33;;;;;;;11.73;9.03;;;;;;;19.78;63.79;98288.44;8385409;28;20216;-66
2021/08/23 08:49:38;;;;;;;10.30;9.07;;;;;;;20.01;63.77;98296.28;8385292;28;20199;-66
2021/08/23 08:53:42;;;;;;;11.80;9.10;;;;;;;20.13;62.56;98294.53;8385380;28;20207;-66
2021/08/23 08:57:45;;;;;;;11.87;8.53;;;;;;;20.36;61.84;98290.91;8384738;28;20228;-66
2021/08/23 09:01:49;;;;;;;9.03;8.03;;;;;;;20.45;61.96;98295.44;8384798;28;20202;-66
2021/08/23 09:06:00;;;;;;;8.57;7.77;;;;;;;20.35;62.76;98296.28;8384633;28;20286;-66
2021/08/23 09:10:20;;;;;;;12.13;7.73;;;;;;;20.09;63.07;98296.56;8384793;28;20204;-66
2021/08/23 09:14:23;;;;;;;8.80;7.90;;;;;;;20.05;62.91;98295.13;8384606;28;20233;-67
2021/08/23 09:18:28;;;;;;;9.27;8.17;;;;;;;20.08;63.27;98302.75;8384213;28;20256;-67
2021/08/23 09:22:31;;;;;;;9.60;8.03;;;;;;;19.92;63.73;98305.75;8383865;28;20202;-65
2021/08/23 09:26:35;;;;;;;8.93;8.03;;;;;;;19.96;63.98;98314.22;8383546;28;20213;-66
2021/08/23 09:30:39;;;;;;;9.30;8.03;;;;;;;19.99;64.04;98311.34;8383907;28;20207;-66
2021/08/23 09:34:44;;;;;;;9.13;8.33;;;;;;;20.04;63.53;98307.41;8383846;28;20213;-66
2021/08/23 09:38:58;;;;;;;9.97;8.20;;;;;;;20.11;63.83;98307.78;8383558;28;20235;-66
2021/08/23 09:43:08;;;;;;;8.93;8.10;;;;;;;19.97;63.21;98303.59;8383761;28;20212;-66
2021/08/23 09:47:11;;;;;;;7.80;7.03;;;;;;;20.10;63.29;98300.84;8383747;28;20205;-66
2021/08/23 09:51:24;;;;;;;8.63;7.57;;;;;;;20.30;62.90;98292.22;8383345;28;20206;-66
2021/08/23 09:55:28;;;;;;;8.37;7.13;;;;;;;20.34;62.44;98298.06;8383164;28;20229;-66
2021/08/23 09:59:35;;;;;;;8.83;7.93;;;;;;;20.24;62.27;98295.34;8383217;28;20391;-67
2021/08/23 10:03:39;;;;;;;11.10;7.47;;;;;;;20.41;62.14;98304.53;8382590;28;20334;-66
2021/08/23 10:07:49;;;;;;;8.10;7.30;;;;;;;20.48;60.97;98303.06;8382920;28;20220;-66
2021/08/23 10:11:54;;;;;;;8.30;6.97;;;;;;;20.88;60.55;98299.06;8383028;28;20213;-66
2021/08/23 10:15:58;;;;;;;9.07;6.27;;;;;;;21.79;59.01;98288.91;8382931;28;20261;-66
2021/08/23 10:20:01;;;;;;;7.30;6.60;;;;;;;21.36;58.55;98292.50;8382812;28;20201;-63
2021/08/23 10:24:06;;;;;;;7.60;6.30;;;;;;;21.50;58.20;98292.22;8382765;28;20314;-64
2021/08/23 10:28:12;;;;;;;7.63;6.60;;;;;;;21.64;57.06;98283.16;8382730;28;20203;-64
2021/08/23 10:32:16;;;;;;;7.00;5.63;;;;;;;22.16;56.01;98264.63;8382772;28;20215;-64
2021/08/23 10:36:19;;;;;;;7.03;6.17;;;;;;;22.29;55.99;98264.44;8382540;28;20243;-64
2021/08/23 10:40:24;;;;;;;7.70;6.33;;;;;;;22.01;56.50;98254.47;8389288;28;20200;-64
2021/08/23 10:44:28;;;;;;;8.00;6.40;;;;;;;22.06;56.32;98251.41;8388985;28;20211;-64
2021/08/23 10:48:47;;;;;;;8.00;5.90;;;;;;;22.04;56.84;98250.72;8388780;28;20218;-64
2021/08/23 10:52:51;;;;;;;6.53;5.10;;;;;;;21.92;56.05;98254.44;8388957;28;20201;-63
2021/08/23 10:57:05;;;;;;;8.03;5.63;;;;;;;22.04;55.80;98246.28;8389055;28;20230;-65
2021/08/23 11:01:18;;;;;;;8.23;5.23;;;;;;;21.98;56.21;98245.97;8388665;28;20236;-64
2021/08/23 11:05:22;;;;;;;8.83;5.60;;;;;;;21.74;55.80;98244.50;8388752;28;20539;-64
2021/08/23 11:09:34;;;;;;;5.93;4.93;;;;;;;21.76;55.44;98250.50;8388382;28;20239;-64
2021/08/23 11:13:40;;;;;;;14.90;5.07;;;;;;;21.67;55.27;98241.56;8388485;28;20515;-64
2021/08/23 11:17:45;;;;;;;6.47;4.80;;;;;;;21.66;55.46;98239.88;8388237;28;20231;-64
2021/08/23 11:21:56;;;;;;;5.30;4.77;;;;;;;21.57;55.77;98239.81;8388045;28;20218;-64
2021/08/23 11:26:01;;;;;;;7.10;5.00;;;;;;;21.50;56.34;98242.16;8387844;28;20204;-64
2021/08/23 11:30:05;;;;;;;8.87;5.00;;;;;;;21.65;56.66;98232.94;8387825;28;20198;-65
2021/08/23 11:34:08;;;;;;;6.90;5.40;;;;;;;21.28;56.84;98243.09;8387639;28;20209;-65
2021/08/23 11:38:12;;;;;;;9.03;5.10;;;;;;;21.33;56.88;98242.72;8387262;28;20231;-65
2021/08/23 11:42:15;;;;;;;6.90;5.23;;;;;;;21.37;57.53;98234.44;8387644;28;20207;-65
2021/08/23 11:46:18;;;;;;;6.13;5.47;;;;;;;21.41;58.34;98229.72;8387274;28;20245;-65
2021/08/23 11:50:23;;;;;;;7.87;5.73;;;;;;;21.18;58.74;98221.97;8386102;28;20504;-65
2021/08/23 11:54:27;;;;;;;8.40;6.13;;;;;;;20.94;59.96;98231.91;8387063;28;20517;-64
2021/08/23 11:58:37;;;;;;;6.57;5.70;;;;;;;21.12;59.68;98227.75;8384743;28;20235;-70
2021/08/23 12:02:40;;;;;;;7.60;6.40;;;;;;;21.45;60.95;98225.91;8386322;28;20307;-70
2021/08/23 12:06:42;;;;;;;9.50;6.23;;;;;;;21.66;61.06;98225.88;8386865;28;20386;-70
2021/08/23 12:10:51;;;;;;;6.87;6.17;;;;;;;21.88;61.36;98227.50;8386576;28;20207;-70
2021/08/23 12:15:00;;;;;;;6.57;5.70;;;;;;;21.59;61.14;98227.34;8386435;28;20203;-70
2021/08/23 12:19:07;;;;;;;6.63;5.80;;;;;;;21.58;61.72;98231.78;8385804;28;20545;-69
2021/08/23 12:23:10;;;;;;;6.23;5.63;;;;;;;21.35;62.55;98230.25;8384674;28;20502;-70
2021/08/23 12:27:18;;;;;;;6.67;6.00;;;;;;;20.84;63.92;98242.38;8385535;28;20212;-71
2021/08/23 12:31:21;;;;;;;7.07;6.47;;;;;;;20.82;64.81;98247.75;8384905;28;20204;-69
2021/08/23 12:35:28;;;;;;;9.37;6.87;;;;;;;20.63;65.05;98255.47;8385650;28;20220;-69
2021/08/23 12:39:32;;;;;;;6.70;5.97;;;;;;;20.50;65.10;98251.19;8385518;28;20237;-70
2021/08/23 12:43:37;;;;;;;7.00;6.30;;;;;;;20.34;65.78;98257.81;8385522;28;20231;-70
2021/08/23 12:47:40;;;;;;;6.90;5.90;;;;;;;20.44;66.68;98259.56;8385596;28;20530;-70
2021/08/23 12:51:44;;;;;;;6.07;5.47;;;;;;;20.41;65.58;98257.19;8384146;28;20391;-67
2021/08/23 12:55:47;;;;;;;7.05;6.35;;;;;;;20.44;65.50;98254.28;8384053;28;20632;-69
2021/08/23 12:59:51;;;;;;;6.43;5.83;;;;;;;20.42;66.26;98255.38;8384526;28;20230;-68
2021/08/23 13:03:54;;;;;;;7.40;6.30;;;;;;;20.22;66.75;98247.31;8384512;28;20301;-68
2021/08/23 13:07:56;;;;;;;8.47;6.20;;;;;;;20.31;66.87;98250.97;8384776;28;20396;-68
2021/08/23 13:11:59;;;;;;;6.40;5.80;;;;;;;20.40;66.58;98257.31;8384647;28;20207;-68
2021/08/23 13:16:04;;;;;;;7.40;6.70;;;;;;;20.49;66.43;98256.56;8384499;28;20387;-65
2021/08/23 13:20:09;;;;;;;7.77;7.07;;;;;;;20.22;67.25;98254.34;8384259;28;20252;-65
2021/08/23 13:24:11;;;;;;;7.20;6.60;;;;;;;20.29;67.36;98253.72;8384197;28;20200;-65
2021/08/23 13:28:14;;;;;;;6.77;6.17;;;;;;;20.33;66.95;98253.50;8384124;28;20205;-65
2021/08/23 13:32:18;;;;;;;7.20;6.50;;;;;;;20.35;66.80;98243.69;8383973;28;20206;-64
2021/08/23 13:36:21;;;;;;;6.53;5.67;;;;;;;20.58;66.10;98244.44;8383794;28;20226;-65
2021/08/23 13:40:24;;;;;;;7.20;5.77;;;;;;;20.46;66.96;98239.22;8383742;28;20202;-65
2021/08/23 13:44:27;;;;;;;6.40;5.80;;;;;;;20.31;67.00;98245.72;8383643;28;20202;-65
2021/08/23 13:48:31;;;;;;;17.50;6.30;;;;;;;20.47;66.77;98242.72;8383481;28;20510;-65
2021/08/23 13:52:34;;;;;;;5.50;5.00;;;;;;;20.43;65.98;98238.66;8383467;28;20519;-65
2021/08/23 13:56:36;;;;;;;5.60;5.10;;;;;;;20.54;66.48;98246.50;8383412;28;20365;-65
2021/08/23 14:00:39;;;;;;;5.23;4.83;;;;;;;20.61;66.01;98247.72;8383163;28;20203;-65
2021/08/23 14:04:44;;;;;;;6.27;4.50;;;;;;;20.67;66.01;98244.56;8382910;28;20433;-65
2021/08/23 14:08:46;;;;;;;4.37;3.97;;;;;;;20.38;66.20;98243.44;8383068;28;20210;-66
2021/08/23 14:12:49;;;;;;;5.20;3.90;;;;;;;20.55;66.24;98242.09;8382345;28;20200;-65
2021/08/23 14:16:53;;;;;;;4.30;3.90;;;;;;;20.49;65.90;98240.78;8382860;28;20507;-65
2021/08/23 14:20:57;;;;;;;4.17;3.60;;;;;;;20.49;65.41;98240.78;8382921;28;20207;-65
2021/08/23 14:25:00;;;;;;;5.13;3.10;;;;;;;20.61;65.66;98236.34;8382795;28;20209;-65
2021/08/23 14:29:03;;;;;;;3.13;2.93;;;;;;;20.52;66.19;98240.53;8382672;28;20204;-67
2021/08/23 14:33:05;;;;;;;3.23;2.93;;;;;;;20.34;65.82;98240.22;8382583;28;20205;-67
2021/08/23 14:37:10;;;;;;;3.53;3.23;;;;;;;20.42;65.56;98244.88;8382361;28;20522;-67
2021/08/23 14:41:17;;;;;;;5.27;3.20;;;;;;;20.36;65.68;98248.00;8382500;28;20384;-67
2021/08/23 14:45:21;;;;;;;2.93;2.73;;;;;;;20.49;65.55;98252.13;8382397;28;20199;-67
2021/08/23 14:49:24;;;;;;;4.37;2.67;;;;;;;20.48;65.48;98255.72;8382425;28;20212;-67
2021/08/23 14:53:28;;;;;;;4.83;3.00;;;;;;;20.43;66.31;98264.97;8382529;28;20204;-67
2021/08/23 14:57:31;;;;;;;3.03;2.83;;;;;;;20.35;66.70;98262.09;8382282;28;20236;-66
2021/08/23 15:01:34;;;;;;;3.53;2.50;;;;;;;20.53;65.82;98257.16;8381950;28;20208;-67
2021/08/23 15:05:38;;;;;;;2.90;2.63;;;;;;;20.46;66.09;98268.16;8381883;28;20342;-67
2021/08/23 15:09:42;;;;;;;3.20;2.60;;;;;;;20.49;66.32;98267.91;8381918;28;20212;-67
2021/08/23 15:13:45;;;;;;;3.93;2.40;;;;;;;20.47;66.37;98277.72;8382014;28;20380;-69
2021/08/23 15:17:48;;;;;;;9.43;3.00;;;;;;;20.46;66.52;98285.75;8382035;28;20246;-68
2021/08/23 15:21:55;;;;;;;11.63;2.97;;;;;;;20.46;66.27;98283.09;8382128;28;20226;-68
2021/08/23 15:26:00;;;;;;;7.27;2.70;;;;;;;20.48;65.96;98292.53;8387579;28;20495;-68
2021/08/23 15:30:03;;;;;;;2.37;2.17;;;;;;;20.35;66.71;98299.75;8387890;28;20211;-68
2021/08/23 15:34:06;;;;;;;2.03;1.93;;;;;;;20.36;66.34;98297.97;8387743;28;20202;-68
2021/08/23 15:38:11;;;;;;;3.33;2.20;;;;;;;20.32;65.54;98294.75;8387542;28;20229;-68
2021/08/23 15:42:15;;;;;;;4.10;2.10;;;;;;;20.43;65.70;98304.41;8387461;28;20214;-66
2021/08/23 15:46:18;;;;;;;2.40;2.10;;;;;;;20.34;64.81;98307.78;8387509;28;20201;-67
2021/08/23 15:50:21;;;;;;;4.20;2.30;;;;;;;20.48;65.09;98304.88;8387269;28;20372;-68
2021/08/23 15:54:24;;;;;;;3.40;1.90;;;;;;;20.44;64.54;98312.16;8387121;28;20199;-67
2021/08/23 15:58:28;;;;;;;3.33;1.90;;;;;;;20.40;64.61;98310.75;8386867;28;20230;-67
2021/08/23 16:02:31;;;;;;;2.20;1.90;;;;;;;20.52;64.17;98311.56;8386625;28;20229;-67
2021/08/23 16:06:34;;;;;;;8.87;2.07;;;;;;;20.54;63.67;98321.97;8386732;28;20275;-67
2021/08/23 16:10:38;;;;;;;2.57;1.90;;;;;;;20.41;63.56;98327.34;8386499;28;20213;-67
2021/08/23 16:14:42;;;;;;;2.33;2.13;;;;;;;20.37;63.72;98318.88;8386474;28;20505;-67
2021/08/23 16:18:44;;;;;;;4.63;2.70;;;;;;;20.30;63.60;98325.59;8386300;28;20225;-67
2021/08/23 16:22:48;;;;;;;2.53;2.33;;;;;;;20.25;63.00;98341.72;8386262;28;20209;-67
2021/08/23 16:26:51;;;;;;;3.20;2.40;;;;;;;19.96;63.69;98345.78;8386182;28;20391;-69
2021/08/23 16:30:55;;;;;;;3.53;2.40;;;;;;;19.87;63.34;98342.88;8385777;28;20203;-69
2021/08/23 16:34:58;;;;;;;2.07;1.87;;;;;;;19.81;63.17;98353.88;8385083;28;20539;-69
2021/08/23 16:39:00;;;;;;;2.10;1.90;;;;;;;19.60;64.02;98352.84;8385465;28;20236;-69
2021/08/23 16:43:08;;;;;;;2.40;1.53;;;;;;;19.54;62.98;98357.59;8385594;28;20272;-69
2021/08/23 16:47:12;;;;;;;4.33;1.70;;;;;;;19.73;64.31;98362.34;8385373;28;20212;-66
2021/08/23 16:51:16;;;;;;;1.83;1.30;;;;;;;19.54;62.19;98365.47;8385327;28;20212;-69
2021/08/23 16:55:18;;;;;;;2.00;0.90;;;;;;;19.31;61.44;98371.59;8385178;28;20202;-69
2021/08/23 16:59:23;;;;;;;0.80;0.80;;;;;;;19.14;61.15;98367.59;8384835;28;20232;-70
2021/08/23 17:03:27;;;;;;;1.13;0.80;;;;;;;18.98;61.75;98377.53;8384670;28;20237;-69
2021/08/23 17:07:32;;;;;;;0.80;0.80;;;;;;;18.83;61.77;98379.44;8384736;28;20209;-69
2021/08/23 17:11:35;;;;;;;1.33;0.70;;;;;;;18.91;61.05;98374.50;8384635;28;20207;-70
2021/08/23 17:15:38;;;;;;;0.70;0.70;;;;;;;18.91;61.66;98390.25;8384427;28;20200;-70
2021/08/23 17:19:42;;;;;;;0.80;0.70;;;;;;;19.01;61.77;98396.50;8384397;28;20441;-70
2021/08/23 17:23:45;;;;;;;1.67;0.80;;;;;;;19.12;61.17;98386.06;8384282;28;20199;-71
2021/08/23 17:27:48;;;;;;;0.70;0.70;;;;;;;19.11;61.27;98394.06;8384158;28;20534;-71
2021/08/23 17:31:51;;;;;;;1.23;0.70;;;;;;;18.84;62.34;98396.88;8384069;28;20441;-71
2021/08/23 17:35:55;;;;;;;0.90;0.80;;;;;;;19.04;61.71;98409.44;8383536;28;20529;-70
2021/08/23 17:39:58;;;;;;;1.80;0.80;;;;;;;18.80;61.15;98412.00;8383118;28;20225;-71
2021/08/23 17:44:01;;;;;;;0.80;0.80;;;;;;;18.76;60.88;98413.13;8382819;28;20506;-71
2021/08/23 17:48:04;;;;;;;1.13;0.90;;;;;;;18.87;60.44;98413.25;8381882;28;20250;-71
2021/08/23 17:52:08;;;;;;;1.10;0.80;;;;;;;18.58;60.08;98417.88;8383508;28;20205;-71
2021/08/23 17:56:11;;;;;;;1.60;1.00;;;;;;;18.56;60.65;98417.16;8383296;28;20204;-70
2021/08/23 18:00:15;;;;;;;1.23;1.00;;;;;;;18.54;59.75;98426.91;8383174;28;20227;-70
2021/08/23 18:04:18;;;;;;;2.83;1.10;;;;;;;18.54;59.21;98429.53;8383089;28;20235;-70
2021/08/23 18:08:22;;;;;;;1.38;1.10;;;;;;;18.89;57.27;98445.47;8381377;28;20425;-70
2021/08/23 18:12:25;;;;;;;1.30;1.13;;;;;;;18.28;59.53;98458.41;8382920;28;20209;-70
2021/08/23 18:16:28;;;;;;;2.20;1.07;;;;;;;18.30;59.09;98468.78;8382901;28;20204;-69
2021/08/23 18:20:31;;;;;;;1.30;1.20;;;;;;;17.82;59.68;98469.34;8382757;28;20600;-70
2021/08/23 18:24:36;;;;;;;2.33;1.30;;;;;;;17.73;60.03;98483.84;8383085;28;20203;-69
2021/08/23 18:28:38;;;;;;;1.40;1.30;;;;;;;17.54;60.89;98486.84;8382727;28;20208;-69
2021/08/23 18:32:41;;;;;;;1.10;1.00;;;;;;;17.33;61.20;98486.44;8382977;28;20509;-69
2021/08/23 18:36:44;;;;;;;2.17;1.37;;;;;;;17.69;60.25;98497.28;8382439;28;20235;-69
2021/08/23 18:40:48;;;;;;;1.83;1.43;;;;;;;17.80;59.85;98494.78;8382499;28;20526;-69
2021/08/23 18:44:51;;;;;;;2.80;1.40;;;;;;;18.07;59.76;98494.78;8382664;28;20204;-69
2021/08/23 18:48:54;;;;;;;3.73;1.47;;;;;;;18.02;59.13;98506.50;8382195;28;20204;-69
2021/08/23 18:52:57;;;;;;;2.07;1.63;;;;;;;18.08;59.34;98517.41;8382385;28;20370;-69
2021/08/23 18:57:01;;;;;;;1.73;1.60;;;;;;;18.05;58.53;98512.38;8382435;28;20222;-69
2021/08/23 19:01:04;;;;;;;2.03;1.80;;;;;;;17.95;58.71;98512.16;8388200;28;20231;-70
2021/08/23 19:05:08;;;;;;;4.90;1.90;;;;;;;17.99;58.52;98515.38;8388582;28;20553;-69